<?xml version="1.0" encoding="UTF-8" standalone="no" ?>
<gpx xmlns="http://www.topografix.com/GPX/1/1" xmlns:xsi="http://www.w3.org/2001/XMLSchema-instance" xsi:schemaLocation="http://www.topografix.com/GPX/1/1 http://www.topografix.com/GPX/1/1/gpx.xsd" version="1.1" creator="VisuGPX - https://www.visugpx.com">
  <metadata>
    <name>GPX-aille diaou 3</name>
  </metadata>
  <trk>
    <name><![CDATA[11385139-aille diaou 3]]></name>
    <trkseg>
      <trkpt lat="43.43459" lon="6.5106">
        <ele>41</ele>
        <time>2020-05-30T15:09:49Z</time>
      </trkpt>
      <trkpt lat="43.43424" lon="6.51047">
        <ele>43</ele>
        <time>2020-05-30T15:10:37Z</time>
      </trkpt>
      <trkpt lat="43.43399" lon="6.5103">
        <ele>45</ele>
        <time>2020-05-30T15:11:15Z</time>
      </trkpt>
      <trkpt lat="43.43359" lon="6.51022">
        <ele>43</ele>
        <time>2020-05-30T15:12:09Z</time>
      </trkpt>
      <trkpt lat="43.43347" lon="6.51016">
        <ele>43</ele>
        <time>2020-05-30T15:12:26Z</time>
      </trkpt>
      <trkpt lat="43.43335" lon="6.51019">
        <ele>42</ele>
        <time>2020-05-30T15:12:42Z</time>
      </trkpt>
      <trkpt lat="43.43319" lon="6.5102">
        <ele>40</ele>
        <time>2020-05-30T15:13:03Z</time>
      </trkpt>
      <trkpt lat="43.43266" lon="6.51043">
        <ele>33</ele>
        <time>2020-05-30T15:14:17Z</time>
      </trkpt>
      <trkpt lat="43.4325" lon="6.51046">
        <ele>32</ele>
        <time>2020-05-30T15:14:39Z</time>
      </trkpt>
      <trkpt lat="43.43233" lon="6.51045">
        <ele>34</ele>
        <time>2020-05-30T15:15:02Z</time>
      </trkpt>
      <trkpt lat="43.43203" lon="6.51038">
        <ele>38</ele>
        <time>2020-05-30T15:15:42Z</time>
      </trkpt>
      <trkpt lat="43.43173" lon="6.51037">
        <ele>42</ele>
        <time>2020-05-30T15:16:22Z</time>
      </trkpt>
      <trkpt lat="43.43169" lon="6.51044">
        <ele>42</ele>
        <time>2020-05-30T15:16:31Z</time>
      </trkpt>
      <trkpt lat="43.43161" lon="6.51068">
        <ele>42</ele>
        <time>2020-05-30T15:16:56Z</time>
      </trkpt>
      <trkpt lat="43.43153" lon="6.51084">
        <ele>43</ele>
        <time>2020-05-30T15:17:15Z</time>
      </trkpt>
      <trkpt lat="43.43139" lon="6.51101">
        <ele>43</ele>
        <time>2020-05-30T15:17:40Z</time>
      </trkpt>
      <trkpt lat="43.43113" lon="6.51121">
        <ele>46</ele>
        <time>2020-05-30T15:18:20Z</time>
      </trkpt>
      <trkpt lat="43.43096" lon="6.51131">
        <ele>47</ele>
        <time>2020-05-30T15:18:45Z</time>
      </trkpt>
      <trkpt lat="43.43074" lon="6.51131">
        <ele>50</ele>
        <time>2020-05-30T15:19:14Z</time>
      </trkpt>
      <trkpt lat="43.43045" lon="6.51125">
        <ele>54</ele>
        <time>2020-05-30T15:19:53Z</time>
      </trkpt>
      <trkpt lat="43.43023" lon="6.51099">
        <ele>59</ele>
        <time>2020-05-30T15:20:32Z</time>
      </trkpt>
      <trkpt lat="43.43017" lon="6.51099">
        <ele>59</ele>
        <time>2020-05-30T15:20:40Z</time>
      </trkpt>
      <trkpt lat="43.43009" lon="6.51105">
        <ele>59</ele>
        <time>2020-05-30T15:20:52Z</time>
      </trkpt>
      <trkpt lat="43.43004" lon="6.51118">
        <ele>57</ele>
        <time>2020-05-30T15:21:06Z</time>
      </trkpt>
      <trkpt lat="43.42986" lon="6.51193">
        <ele>55</ele>
        <time>2020-05-30T15:22:23Z</time>
      </trkpt>
      <trkpt lat="43.4298" lon="6.51207">
        <ele>56</ele>
        <time>2020-05-30T15:22:39Z</time>
      </trkpt>
      <trkpt lat="43.42968" lon="6.51224">
        <ele>58</ele>
        <time>2020-05-30T15:23:02Z</time>
      </trkpt>
      <trkpt lat="43.42964" lon="6.51236">
        <ele>59</ele>
        <time>2020-05-30T15:23:14Z</time>
      </trkpt>
      <trkpt lat="43.42956" lon="6.51278">
        <ele>57</ele>
        <time>2020-05-30T15:23:56Z</time>
      </trkpt>
      <trkpt lat="43.42939" lon="6.51323">
        <ele>58</ele>
        <time>2020-05-30T15:24:46Z</time>
      </trkpt>
      <trkpt lat="43.42921" lon="6.51374">
        <ele>57</ele>
        <time>2020-05-30T15:25:40Z</time>
      </trkpt>
      <trkpt lat="43.429" lon="6.51427">
        <ele>59</ele>
        <time>2020-05-30T15:26:39Z</time>
      </trkpt>
      <trkpt lat="43.42907" lon="6.51451">
        <ele>54</ele>
        <time>2020-05-30T15:27:04Z</time>
      </trkpt>
      <trkpt lat="43.42913" lon="6.51491">
        <ele>50</ele>
        <time>2020-05-30T15:27:44Z</time>
      </trkpt>
      <trkpt lat="43.42914" lon="6.5151">
        <ele>48</ele>
        <time>2020-05-30T15:28:02Z</time>
      </trkpt>
      <trkpt lat="43.42912" lon="6.51525">
        <ele>47</ele>
        <time>2020-05-30T15:28:17Z</time>
      </trkpt>
      <trkpt lat="43.42905" lon="6.51547">
        <ele>47</ele>
        <time>2020-05-30T15:28:40Z</time>
      </trkpt>
      <trkpt lat="43.4289" lon="6.5157">
        <ele>48</ele>
        <time>2020-05-30T15:29:10Z</time>
      </trkpt>
      <trkpt lat="43.42881" lon="6.51589">
        <ele>48</ele>
        <time>2020-05-30T15:29:32Z</time>
      </trkpt>
      <trkpt lat="43.42868" lon="6.51611">
        <ele>50</ele>
        <time>2020-05-30T15:30:00Z</time>
      </trkpt>
      <trkpt lat="43.4286" lon="6.51619">
        <ele>51</ele>
        <time>2020-05-30T15:30:13Z</time>
      </trkpt>
      <trkpt lat="43.42855" lon="6.51628">
        <ele>52</ele>
        <time>2020-05-30T15:30:24Z</time>
      </trkpt>
      <trkpt lat="43.42851" lon="6.51641">
        <ele>52</ele>
        <time>2020-05-30T15:30:37Z</time>
      </trkpt>
      <trkpt lat="43.42852" lon="6.51662">
        <ele>50</ele>
        <time>2020-05-30T15:30:58Z</time>
      </trkpt>
      <trkpt lat="43.42854" lon="6.51678">
        <ele>50</ele>
        <time>2020-05-30T15:31:14Z</time>
      </trkpt>
      <trkpt lat="43.42858" lon="6.51692">
        <ele>50</ele>
        <time>2020-05-30T15:31:28Z</time>
      </trkpt>
      <trkpt lat="43.42869" lon="6.51713">
        <ele>48</ele>
        <time>2020-05-30T15:31:53Z</time>
      </trkpt>
      <trkpt lat="43.42876" lon="6.51735">
        <ele>47</ele>
        <time>2020-05-30T15:32:17Z</time>
      </trkpt>
      <trkpt lat="43.42881" lon="6.51762">
        <ele>47</ele>
        <time>2020-05-30T15:32:44Z</time>
      </trkpt>
      <trkpt lat="43.42886" lon="6.51801">
        <ele>48</ele>
        <time>2020-05-30T15:33:22Z</time>
      </trkpt>
      <trkpt lat="43.42887" lon="6.51837">
        <ele>50</ele>
        <time>2020-05-30T15:33:57Z</time>
      </trkpt>
      <trkpt lat="43.42891" lon="6.51867">
        <ele>50</ele>
        <time>2020-05-30T15:34:26Z</time>
      </trkpt>
      <trkpt lat="43.42903" lon="6.51937">
        <ele>47</ele>
        <time>2020-05-30T15:35:36Z</time>
      </trkpt>
      <trkpt lat="43.4292" lon="6.5199">
        <ele>41</ele>
        <time>2020-05-30T15:36:32Z</time>
      </trkpt>
      <trkpt lat="43.42934" lon="6.52039">
        <ele>44</ele>
        <time>2020-05-30T15:37:23Z</time>
      </trkpt>
      <trkpt lat="43.42941" lon="6.52079">
        <ele>47</ele>
        <time>2020-05-30T15:38:03Z</time>
      </trkpt>
      <trkpt lat="43.42963" lon="6.52162">
        <ele>43</ele>
        <time>2020-05-30T15:39:29Z</time>
      </trkpt>
      <trkpt lat="43.42979" lon="6.52233">
        <ele>37</ele>
        <time>2020-05-30T15:40:41Z</time>
      </trkpt>
      <trkpt lat="43.42972" lon="6.52259">
        <ele>39</ele>
        <time>2020-05-30T15:41:08Z</time>
      </trkpt>
      <trkpt lat="43.42961" lon="6.5228">
        <ele>40</ele>
        <time>2020-05-30T15:41:33Z</time>
      </trkpt>
      <trkpt lat="43.42949" lon="6.52298">
        <ele>40</ele>
        <time>2020-05-30T15:41:56Z</time>
      </trkpt>
      <trkpt lat="43.42929" lon="6.52316">
        <ele>39</ele>
        <time>2020-05-30T15:42:28Z</time>
      </trkpt>
      <trkpt lat="43.42916" lon="6.52317">
        <ele>40</ele>
        <time>2020-05-30T15:42:46Z</time>
      </trkpt>
      <trkpt lat="43.42901" lon="6.52315">
        <ele>41</ele>
        <time>2020-05-30T15:43:06Z</time>
      </trkpt>
      <trkpt lat="43.42893" lon="6.52318">
        <ele>41</ele>
        <time>2020-05-30T15:43:17Z</time>
      </trkpt>
      <trkpt lat="43.42885" lon="6.52329">
        <ele>39</ele>
        <time>2020-05-30T15:43:32Z</time>
      </trkpt>
      <trkpt lat="43.42847" lon="6.52356">
        <ele>38</ele>
        <time>2020-05-30T15:44:29Z</time>
      </trkpt>
      <trkpt lat="43.42871" lon="6.5238">
        <ele>38</ele>
        <time>2020-05-30T15:45:09Z</time>
      </trkpt>
      <trkpt lat="43.42896" lon="6.52392">
        <ele>38</ele>
        <time>2020-05-30T15:45:44Z</time>
      </trkpt>
      <trkpt lat="43.42911" lon="6.52402">
        <ele>39</ele>
        <time>2020-05-30T15:46:06Z</time>
      </trkpt>
      <trkpt lat="43.42923" lon="6.52404">
        <ele>39</ele>
        <time>2020-05-30T15:46:22Z</time>
      </trkpt>
      <trkpt lat="43.42943" lon="6.52399">
        <ele>39</ele>
        <time>2020-05-30T15:46:49Z</time>
      </trkpt>
      <trkpt lat="43.42955" lon="6.52388">
        <ele>38</ele>
        <time>2020-05-30T15:47:09Z</time>
      </trkpt>
      <trkpt lat="43.42973" lon="6.52379">
        <ele>38</ele>
        <time>2020-05-30T15:47:34Z</time>
      </trkpt>
      <trkpt lat="43.4298" lon="6.52379">
        <ele>38</ele>
        <time>2020-05-30T15:47:44Z</time>
      </trkpt>
      <trkpt lat="43.42994" lon="6.52388">
        <ele>38</ele>
        <time>2020-05-30T15:48:04Z</time>
      </trkpt>
      <trkpt lat="43.43003" lon="6.52391">
        <ele>38</ele>
        <time>2020-05-30T15:48:17Z</time>
      </trkpt>
      <trkpt lat="43.43039" lon="6.52421">
        <ele>38</ele>
        <time>2020-05-30T15:49:13Z</time>
      </trkpt>
      <trkpt lat="43.43042" lon="6.52447">
        <ele>42</ele>
        <time>2020-05-30T15:49:38Z</time>
      </trkpt>
      <trkpt lat="43.43065" lon="6.52464">
        <ele>44</ele>
        <time>2020-05-30T15:50:13Z</time>
      </trkpt>
      <trkpt lat="43.43085" lon="6.52492">
        <ele>50</ele>
        <time>2020-05-30T15:50:51Z</time>
      </trkpt>
      <trkpt lat="43.43113" lon="6.52504">
        <ele>49</ele>
        <time>2020-05-30T15:51:30Z</time>
      </trkpt>
      <trkpt lat="43.43118" lon="6.52511">
        <ele>51</ele>
        <time>2020-05-30T15:51:40Z</time>
      </trkpt>
      <trkpt lat="43.43124" lon="6.52529">
        <ele>57</ele>
        <time>2020-05-30T15:51:59Z</time>
      </trkpt>
      <trkpt lat="43.43129" lon="6.52533">
        <ele>58</ele>
        <time>2020-05-30T15:52:07Z</time>
      </trkpt>
      <trkpt lat="43.43134" lon="6.52531">
        <ele>57</ele>
        <time>2020-05-30T15:52:14Z</time>
      </trkpt>
      <trkpt lat="43.43146" lon="6.5252">
        <ele>52</ele>
        <time>2020-05-30T15:52:33Z</time>
      </trkpt>
      <trkpt lat="43.43155" lon="6.52518">
        <ele>50</ele>
        <time>2020-05-30T15:52:45Z</time>
      </trkpt>
      <trkpt lat="43.43199" lon="6.52517">
        <ele>48</ele>
        <time>2020-05-30T15:53:44Z</time>
      </trkpt>
      <trkpt lat="43.43265" lon="6.52509">
        <ele>44</ele>
        <time>2020-05-30T15:55:12Z</time>
      </trkpt>
      <trkpt lat="43.43314" lon="6.52501">
        <ele>40</ele>
        <time>2020-05-30T15:56:18Z</time>
      </trkpt>
      <trkpt lat="43.43327" lon="6.52502">
        <ele>41</ele>
        <time>2020-05-30T15:56:35Z</time>
      </trkpt>
      <trkpt lat="43.43352" lon="6.52511">
        <ele>41</ele>
        <time>2020-05-30T15:57:10Z</time>
      </trkpt>
      <trkpt lat="43.4337" lon="6.52533">
        <ele>44</ele>
        <time>2020-05-30T15:57:42Z</time>
      </trkpt>
      <trkpt lat="43.43375" lon="6.52535">
        <ele>45</ele>
        <time>2020-05-30T15:57:49Z</time>
      </trkpt>
      <trkpt lat="43.43382" lon="6.52533">
        <ele>44</ele>
        <time>2020-05-30T15:57:58Z</time>
      </trkpt>
      <trkpt lat="43.43397" lon="6.52518">
        <ele>40</ele>
        <time>2020-05-30T15:58:23Z</time>
      </trkpt>
      <trkpt lat="43.43406" lon="6.52512">
        <ele>39</ele>
        <time>2020-05-30T15:58:37Z</time>
      </trkpt>
      <trkpt lat="43.43439" lon="6.52504">
        <ele>37</ele>
        <time>2020-05-30T15:59:21Z</time>
      </trkpt>
      <trkpt lat="43.43481" lon="6.52503">
        <ele>36</ele>
        <time>2020-05-30T16:00:17Z</time>
      </trkpt>
      <trkpt lat="43.43503" lon="6.525">
        <ele>35</ele>
        <time>2020-05-30T16:00:47Z</time>
      </trkpt>
      <trkpt lat="43.43542" lon="6.52491">
        <ele>37</ele>
        <time>2020-05-30T16:01:40Z</time>
      </trkpt>
      <trkpt lat="43.43577" lon="6.52479">
        <ele>38</ele>
        <time>2020-05-30T16:02:28Z</time>
      </trkpt>
      <trkpt lat="43.43607" lon="6.52476">
        <ele>40</ele>
        <time>2020-05-30T16:03:08Z</time>
      </trkpt>
      <trkpt lat="43.43615" lon="6.52474">
        <ele>40</ele>
        <time>2020-05-30T16:03:19Z</time>
      </trkpt>
      <trkpt lat="43.43642" lon="6.5246">
        <ele>40</ele>
        <time>2020-05-30T16:03:57Z</time>
      </trkpt>
      <trkpt lat="43.43654" lon="6.52449">
        <ele>38</ele>
        <time>2020-05-30T16:04:16Z</time>
      </trkpt>
      <trkpt lat="43.4367" lon="6.52432">
        <ele>35</ele>
        <time>2020-05-30T16:04:43Z</time>
      </trkpt>
      <trkpt lat="43.43692" lon="6.52422">
        <ele>34</ele>
        <time>2020-05-30T16:05:14Z</time>
      </trkpt>
      <trkpt lat="43.43763" lon="6.52414">
        <ele>34</ele>
        <time>2020-05-30T16:06:49Z</time>
      </trkpt>
      <trkpt lat="43.43779" lon="6.52409">
        <ele>34</ele>
        <time>2020-05-30T16:07:11Z</time>
      </trkpt>
      <trkpt lat="43.438" lon="6.524">
        <ele>34</ele>
        <time>2020-05-30T16:07:41Z</time>
      </trkpt>
      <trkpt lat="43.43817" lon="6.52397">
        <ele>35</ele>
        <time>2020-05-30T16:08:04Z</time>
      </trkpt>
      <trkpt lat="43.43842" lon="6.52394">
        <ele>35</ele>
        <time>2020-05-30T16:08:37Z</time>
      </trkpt>
      <trkpt lat="43.43864" lon="6.52386">
        <ele>34</ele>
        <time>2020-05-30T16:09:07Z</time>
      </trkpt>
      <trkpt lat="43.43894" lon="6.52417">
        <ele>38</ele>
        <time>2020-05-30T16:09:57Z</time>
      </trkpt>
      <trkpt lat="43.43926" lon="6.52476">
        <ele>46</ele>
        <time>2020-05-30T16:11:09Z</time>
      </trkpt>
      <trkpt lat="43.43963" lon="6.52539">
        <ele>54</ele>
        <time>2020-05-30T16:12:27Z</time>
      </trkpt>
      <trkpt lat="43.43967" lon="6.52554">
        <ele>55</ele>
        <time>2020-05-30T16:12:43Z</time>
      </trkpt>
      <trkpt lat="43.43968" lon="6.52568">
        <ele>57</ele>
        <time>2020-05-30T16:12:56Z</time>
      </trkpt>
      <trkpt lat="43.43964" lon="6.52584">
        <ele>58</ele>
        <time>2020-05-30T16:13:13Z</time>
      </trkpt>
      <trkpt lat="43.43955" lon="6.52604">
        <ele>60</ele>
        <time>2020-05-30T16:13:36Z</time>
      </trkpt>
      <trkpt lat="43.43951" lon="6.52619">
        <ele>62</ele>
        <time>2020-05-30T16:13:51Z</time>
      </trkpt>
      <trkpt lat="43.43946" lon="6.52694">
        <ele>71</ele>
        <time>2020-05-30T16:15:04Z</time>
      </trkpt>
      <trkpt lat="43.43941" lon="6.52713">
        <ele>74</ele>
        <time>2020-05-30T16:15:24Z</time>
      </trkpt>
      <trkpt lat="43.43943" lon="6.52721">
        <ele>75</ele>
        <time>2020-05-30T16:15:32Z</time>
      </trkpt>
      <trkpt lat="43.43955" lon="6.52747">
        <ele>79</ele>
        <time>2020-05-30T16:16:02Z</time>
      </trkpt>
      <trkpt lat="43.43969" lon="6.52787">
        <ele>85</ele>
        <time>2020-05-30T16:16:45Z</time>
      </trkpt>
      <trkpt lat="43.4398" lon="6.52803">
        <ele>88</ele>
        <time>2020-05-30T16:17:06Z</time>
      </trkpt>
      <trkpt lat="43.43989" lon="6.52871">
        <ele>101</ele>
        <time>2020-05-30T16:18:13Z</time>
      </trkpt>
      <trkpt lat="43.43985" lon="6.52893">
        <ele>106</ele>
        <time>2020-05-30T16:18:35Z</time>
      </trkpt>
      <trkpt lat="43.43984" lon="6.52915">
        <ele>110</ele>
        <time>2020-05-30T16:18:56Z</time>
      </trkpt>
      <trkpt lat="43.43985" lon="6.52927">
        <ele>113</ele>
        <time>2020-05-30T16:19:08Z</time>
      </trkpt>
      <trkpt lat="43.43991" lon="6.52935">
        <ele>115</ele>
        <time>2020-05-30T16:19:19Z</time>
      </trkpt>
      <trkpt lat="43.44002" lon="6.52944">
        <ele>117</ele>
        <time>2020-05-30T16:19:36Z</time>
      </trkpt>
      <trkpt lat="43.44004" lon="6.53009">
        <ele>129</ele>
        <time>2020-05-30T16:20:39Z</time>
      </trkpt>
      <trkpt lat="43.43998" lon="6.53063">
        <ele>135</ele>
        <time>2020-05-30T16:21:32Z</time>
      </trkpt>
      <trkpt lat="43.43991" lon="6.53079">
        <ele>137</ele>
        <time>2020-05-30T16:21:50Z</time>
      </trkpt>
      <trkpt lat="43.43981" lon="6.53096">
        <ele>139</ele>
        <time>2020-05-30T16:22:12Z</time>
      </trkpt>
      <trkpt lat="43.43968" lon="6.53104">
        <ele>142</ele>
        <time>2020-05-30T16:22:31Z</time>
      </trkpt>
      <trkpt lat="43.43956" lon="6.53134">
        <ele>144</ele>
        <time>2020-05-30T16:23:04Z</time>
      </trkpt>
      <trkpt lat="43.43946" lon="6.53153">
        <ele>148</ele>
        <time>2020-05-30T16:23:27Z</time>
      </trkpt>
      <trkpt lat="43.43929" lon="6.53187">
        <ele>152</ele>
        <time>2020-05-30T16:24:07Z</time>
      </trkpt>
      <trkpt lat="43.4392" lon="6.53225">
        <ele>151</ele>
        <time>2020-05-30T16:24:45Z</time>
      </trkpt>
      <trkpt lat="43.43913" lon="6.53244">
        <ele>151</ele>
        <time>2020-05-30T16:25:06Z</time>
      </trkpt>
      <trkpt lat="43.43902" lon="6.53263">
        <ele>151</ele>
        <time>2020-05-30T16:25:29Z</time>
      </trkpt>
      <trkpt lat="43.43864" lon="6.53299">
        <ele>154</ele>
        <time>2020-05-30T16:26:31Z</time>
      </trkpt>
      <trkpt lat="43.43831" lon="6.53317">
        <ele>159</ele>
        <time>2020-05-30T16:27:18Z</time>
      </trkpt>
      <trkpt lat="43.43807" lon="6.53334">
        <ele>159</ele>
        <time>2020-05-30T16:27:54Z</time>
      </trkpt>
      <trkpt lat="43.43764" lon="6.53373">
        <ele>157</ele>
        <time>2020-05-30T16:29:03Z</time>
      </trkpt>
      <trkpt lat="43.43751" lon="6.53377">
        <ele>159</ele>
        <time>2020-05-30T16:29:21Z</time>
      </trkpt>
      <trkpt lat="43.43736" lon="6.53372">
        <ele>160</ele>
        <time>2020-05-30T16:29:41Z</time>
      </trkpt>
      <trkpt lat="43.43718" lon="6.53362">
        <ele>163</ele>
        <time>2020-05-30T16:30:07Z</time>
      </trkpt>
      <trkpt lat="43.4369" lon="6.5335">
        <ele>168</ele>
        <time>2020-05-30T16:30:46Z</time>
      </trkpt>
      <trkpt lat="43.43678" lon="6.53351">
        <ele>168</ele>
        <time>2020-05-30T16:31:03Z</time>
      </trkpt>
      <trkpt lat="43.43645" lon="6.53363">
        <ele>166</ele>
        <time>2020-05-30T16:31:48Z</time>
      </trkpt>
      <trkpt lat="43.43584" lon="6.53374">
        <ele>172</ele>
        <time>2020-05-30T16:33:10Z</time>
      </trkpt>
      <trkpt lat="43.43552" lon="6.53381">
        <ele>170</ele>
        <time>2020-05-30T16:33:53Z</time>
      </trkpt>
      <trkpt lat="43.43531" lon="6.53375">
        <ele>171</ele>
        <time>2020-05-30T16:34:22Z</time>
      </trkpt>
      <trkpt lat="43.4346" lon="6.53382">
        <ele>168</ele>
        <time>2020-05-30T16:35:57Z</time>
      </trkpt>
      <trkpt lat="43.43438" lon="6.53388">
        <ele>167</ele>
        <time>2020-05-30T16:36:27Z</time>
      </trkpt>
      <trkpt lat="43.43424" lon="6.53389">
        <ele>167</ele>
        <time>2020-05-30T16:36:46Z</time>
      </trkpt>
      <trkpt lat="43.43399" lon="6.53377">
        <ele>167</ele>
        <time>2020-05-30T16:37:21Z</time>
      </trkpt>
      <trkpt lat="43.43388" lon="6.53375">
        <ele>169</ele>
        <time>2020-05-30T16:37:36Z</time>
      </trkpt>
      <trkpt lat="43.43363" lon="6.53377">
        <ele>175</ele>
        <time>2020-05-30T16:38:09Z</time>
      </trkpt>
      <trkpt lat="43.43358" lon="6.53372">
        <ele>175</ele>
        <time>2020-05-30T16:38:17Z</time>
      </trkpt>
      <trkpt lat="43.43357" lon="6.53367">
        <ele>175</ele>
        <time>2020-05-30T16:38:22Z</time>
      </trkpt>
      <trkpt lat="43.43357" lon="6.53356">
        <ele>174</ele>
        <time>2020-05-30T16:38:33Z</time>
      </trkpt>
      <trkpt lat="43.43371" lon="6.53311">
        <ele>163</ele>
        <time>2020-05-30T16:39:21Z</time>
      </trkpt>
      <trkpt lat="43.43377" lon="6.53294">
        <ele>159</ele>
        <time>2020-05-30T16:39:39Z</time>
      </trkpt>
      <trkpt lat="43.4338" lon="6.53278">
        <ele>155</ele>
        <time>2020-05-30T16:39:55Z</time>
      </trkpt>
      <trkpt lat="43.4338" lon="6.53269">
        <ele>154</ele>
        <time>2020-05-30T16:40:04Z</time>
      </trkpt>
      <trkpt lat="43.43375" lon="6.53251">
        <ele>153</ele>
        <time>2020-05-30T16:40:22Z</time>
      </trkpt>
      <trkpt lat="43.4335" lon="6.53206">
        <ele>152</ele>
        <time>2020-05-30T16:41:17Z</time>
      </trkpt>
      <trkpt lat="43.43304" lon="6.53136">
        <ele>142</ele>
        <time>2020-05-30T16:42:49Z</time>
      </trkpt>
      <trkpt lat="43.43287" lon="6.53114">
        <ele>139</ele>
        <time>2020-05-30T16:43:20Z</time>
      </trkpt>
      <trkpt lat="43.43278" lon="6.53108">
        <ele>139</ele>
        <time>2020-05-30T16:43:33Z</time>
      </trkpt>
      <trkpt lat="43.43254" lon="6.531">
        <ele>141</ele>
        <time>2020-05-30T16:44:06Z</time>
      </trkpt>
      <trkpt lat="43.43236" lon="6.53102">
        <ele>147</ele>
        <time>2020-05-30T16:44:30Z</time>
      </trkpt>
      <trkpt lat="43.43229" lon="6.531">
        <ele>149</ele>
        <time>2020-05-30T16:44:40Z</time>
      </trkpt>
      <trkpt lat="43.43222" lon="6.5309">
        <ele>149</ele>
        <time>2020-05-30T16:44:53Z</time>
      </trkpt>
      <trkpt lat="43.4322" lon="6.53077">
        <ele>147</ele>
        <time>2020-05-30T16:45:06Z</time>
      </trkpt>
      <trkpt lat="43.4322" lon="6.53062">
        <ele>143</ele>
        <time>2020-05-30T16:45:21Z</time>
      </trkpt>
      <trkpt lat="43.43229" lon="6.53027">
        <ele>133</ele>
        <time>2020-05-30T16:45:57Z</time>
      </trkpt>
      <trkpt lat="43.43229" lon="6.53015">
        <ele>130</ele>
        <time>2020-05-30T16:46:08Z</time>
      </trkpt>
      <trkpt lat="43.43219" lon="6.52988">
        <ele>129</ele>
        <time>2020-05-30T16:46:38Z</time>
      </trkpt>
      <trkpt lat="43.43214" lon="6.52967">
        <ele>126</ele>
        <time>2020-05-30T16:46:59Z</time>
      </trkpt>
      <trkpt lat="43.43208" lon="6.5292">
        <ele>119</ele>
        <time>2020-05-30T16:47:45Z</time>
      </trkpt>
      <trkpt lat="43.43206" lon="6.52844">
        <ele>109</ele>
        <time>2020-05-30T16:48:59Z</time>
      </trkpt>
      <trkpt lat="43.43204" lon="6.52824">
        <ele>108</ele>
        <time>2020-05-30T16:49:19Z</time>
      </trkpt>
      <trkpt lat="43.43199" lon="6.52817">
        <ele>108</ele>
        <time>2020-05-30T16:49:28Z</time>
      </trkpt>
      <trkpt lat="43.43191" lon="6.52863">
        <ele>115</ele>
        <time>2020-05-30T16:50:14Z</time>
      </trkpt>
      <trkpt lat="43.43178" lon="6.52888">
        <ele>123</ele>
        <time>2020-05-30T16:50:44Z</time>
      </trkpt>
      <trkpt lat="43.43163" lon="6.52902">
        <ele>129</ele>
        <time>2020-05-30T16:51:08Z</time>
      </trkpt>
      <trkpt lat="43.43147" lon="6.52913">
        <ele>130</ele>
        <time>2020-05-30T16:51:32Z</time>
      </trkpt>
      <trkpt lat="43.43111" lon="6.52922">
        <ele>131</ele>
        <time>2020-05-30T16:52:21Z</time>
      </trkpt>
      <trkpt lat="43.43098" lon="6.52931">
        <ele>134</ele>
        <time>2020-05-30T16:52:40Z</time>
      </trkpt>
      <trkpt lat="43.43087" lon="6.52945">
        <ele>137</ele>
        <time>2020-05-30T16:53:00Z</time>
      </trkpt>
      <trkpt lat="43.43076" lon="6.52966">
        <ele>142</ele>
        <time>2020-05-30T16:53:25Z</time>
      </trkpt>
      <trkpt lat="43.43069" lon="6.52989">
        <ele>147</ele>
        <time>2020-05-30T16:53:49Z</time>
      </trkpt>
      <trkpt lat="43.43061" lon="6.52992">
        <ele>146</ele>
        <time>2020-05-30T16:54:00Z</time>
      </trkpt>
      <trkpt lat="43.43046" lon="6.52988">
        <ele>142</ele>
        <time>2020-05-30T16:54:21Z</time>
      </trkpt>
      <trkpt lat="43.43034" lon="6.52988">
        <ele>139</ele>
        <time>2020-05-30T16:54:37Z</time>
      </trkpt>
      <trkpt lat="43.43027" lon="6.52993">
        <ele>139</ele>
        <time>2020-05-30T16:54:47Z</time>
      </trkpt>
      <trkpt lat="43.43025" lon="6.53004">
        <ele>140</ele>
        <time>2020-05-30T16:54:58Z</time>
      </trkpt>
      <trkpt lat="43.43028" lon="6.53016">
        <ele>143</ele>
        <time>2020-05-30T16:55:11Z</time>
      </trkpt>
      <trkpt lat="43.43029" lon="6.5303">
        <ele>145</ele>
        <time>2020-05-30T16:55:24Z</time>
      </trkpt>
      <trkpt lat="43.43009" lon="6.53078">
        <ele>147</ele>
        <time>2020-05-30T16:56:18Z</time>
      </trkpt>
      <trkpt lat="43.43002" lon="6.53112">
        <ele>150</ele>
        <time>2020-05-30T16:56:52Z</time>
      </trkpt>
      <trkpt lat="43.42984" lon="6.53145">
        <ele>149</ele>
        <time>2020-05-30T16:57:32Z</time>
      </trkpt>
      <trkpt lat="43.4298" lon="6.5316">
        <ele>150</ele>
        <time>2020-05-30T16:57:48Z</time>
      </trkpt>
      <trkpt lat="43.42981" lon="6.53172">
        <ele>152</ele>
        <time>2020-05-30T16:57:59Z</time>
      </trkpt>
      <trkpt lat="43.42991" lon="6.5321">
        <ele>158</ele>
        <time>2020-05-30T16:58:38Z</time>
      </trkpt>
      <trkpt lat="43.42995" lon="6.53233">
        <ele>160</ele>
        <time>2020-05-30T16:59:01Z</time>
      </trkpt>
      <trkpt lat="43.4301" lon="6.53298">
        <ele>172</ele>
        <time>2020-05-30T17:00:07Z</time>
      </trkpt>
      <trkpt lat="43.43009" lon="6.5331">
        <ele>173</ele>
        <time>2020-05-30T17:00:19Z</time>
      </trkpt>
      <trkpt lat="43.42993" lon="6.53346">
        <ele>173</ele>
        <time>2020-05-30T17:01:00Z</time>
      </trkpt>
      <trkpt lat="43.42985" lon="6.53374">
        <ele>177</ele>
        <time>2020-05-30T17:01:29Z</time>
      </trkpt>
      <trkpt lat="43.42982" lon="6.5341">
        <ele>184</ele>
        <time>2020-05-30T17:02:04Z</time>
      </trkpt>
      <trkpt lat="43.42982" lon="6.53446">
        <ele>192</ele>
        <time>2020-05-30T17:02:39Z</time>
      </trkpt>
      <trkpt lat="43.42978" lon="6.53454">
        <ele>194</ele>
        <time>2020-05-30T17:02:49Z</time>
      </trkpt>
      <trkpt lat="43.42971" lon="6.53459">
        <ele>195</ele>
        <time>2020-05-30T17:02:59Z</time>
      </trkpt>
      <trkpt lat="43.4296" lon="6.53459">
        <ele>195</ele>
        <time>2020-05-30T17:03:14Z</time>
      </trkpt>
      <trkpt lat="43.42928" lon="6.53445">
        <ele>188</ele>
        <time>2020-05-30T17:03:59Z</time>
      </trkpt>
      <trkpt lat="43.429" lon="6.53443">
        <ele>192</ele>
        <time>2020-05-30T17:04:36Z</time>
      </trkpt>
      <trkpt lat="43.42888" lon="6.53428">
        <ele>191</ele>
        <time>2020-05-30T17:04:58Z</time>
      </trkpt>
      <trkpt lat="43.4288" lon="6.53412">
        <ele>189</ele>
        <time>2020-05-30T17:05:16Z</time>
      </trkpt>
      <trkpt lat="43.42865" lon="6.53394">
        <ele>189</ele>
        <time>2020-05-30T17:05:43Z</time>
      </trkpt>
      <trkpt lat="43.42841" lon="6.53375">
        <ele>192</ele>
        <time>2020-05-30T17:06:20Z</time>
      </trkpt>
      <trkpt lat="43.42826" lon="6.53348">
        <ele>188</ele>
        <time>2020-05-30T17:06:53Z</time>
      </trkpt>
      <trkpt lat="43.42821" lon="6.53344">
        <ele>187</ele>
        <time>2020-05-30T17:07:01Z</time>
      </trkpt>
      <trkpt lat="43.42813" lon="6.53344">
        <ele>189</ele>
        <time>2020-05-30T17:07:11Z</time>
      </trkpt>
      <trkpt lat="43.42804" lon="6.53346">
        <ele>191</ele>
        <time>2020-05-30T17:07:23Z</time>
      </trkpt>
      <trkpt lat="43.42795" lon="6.53353">
        <ele>195</ele>
        <time>2020-05-30T17:07:37Z</time>
      </trkpt>
      <trkpt lat="43.42786" lon="6.53354">
        <ele>196</ele>
        <time>2020-05-30T17:07:49Z</time>
      </trkpt>
      <trkpt lat="43.42764" lon="6.53349">
        <ele>199</ele>
        <time>2020-05-30T17:08:19Z</time>
      </trkpt>
      <trkpt lat="43.42739" lon="6.53337">
        <ele>199</ele>
        <time>2020-05-30T17:08:54Z</time>
      </trkpt>
      <trkpt lat="43.42727" lon="6.53335">
        <ele>199</ele>
        <time>2020-05-30T17:09:11Z</time>
      </trkpt>
      <trkpt lat="43.42704" lon="6.53338">
        <ele>203</ele>
        <time>2020-05-30T17:09:41Z</time>
      </trkpt>
      <trkpt lat="43.42682" lon="6.53347">
        <ele>208</ele>
        <time>2020-05-30T17:10:12Z</time>
      </trkpt>
      <trkpt lat="43.4267" lon="6.53349">
        <ele>210</ele>
        <time>2020-05-30T17:10:28Z</time>
      </trkpt>
      <trkpt lat="43.4266" lon="6.53344">
        <ele>210</ele>
        <time>2020-05-30T17:10:42Z</time>
      </trkpt>
      <trkpt lat="43.42642" lon="6.5333">
        <ele>209</ele>
        <time>2020-05-30T17:11:10Z</time>
      </trkpt>
      <trkpt lat="43.42626" lon="6.53325">
        <ele>210</ele>
        <time>2020-05-30T17:11:32Z</time>
      </trkpt>
      <trkpt lat="43.42593" lon="6.53325">
        <ele>216</ele>
        <time>2020-05-30T17:12:16Z</time>
      </trkpt>
      <trkpt lat="43.42557" lon="6.53328">
        <ele>215</ele>
        <time>2020-05-30T17:13:04Z</time>
      </trkpt>
      <trkpt lat="43.42539" lon="6.53339">
        <ele>216</ele>
        <time>2020-05-30T17:13:30Z</time>
      </trkpt>
      <trkpt lat="43.42487" lon="6.53388">
        <ele>222</ele>
        <time>2020-05-30T17:14:54Z</time>
      </trkpt>
      <trkpt lat="43.42477" lon="6.53402">
        <ele>224</ele>
        <time>2020-05-30T17:15:13Z</time>
      </trkpt>
      <trkpt lat="43.42468" lon="6.53416">
        <ele>226</ele>
        <time>2020-05-30T17:15:31Z</time>
      </trkpt>
      <trkpt lat="43.42454" lon="6.53447">
        <ele>226</ele>
        <time>2020-05-30T17:16:07Z</time>
      </trkpt>
      <trkpt lat="43.42439" lon="6.53456">
        <ele>225</ele>
        <time>2020-05-30T17:16:29Z</time>
      </trkpt>
      <trkpt lat="43.42429" lon="6.53466">
        <ele>225</ele>
        <time>2020-05-30T17:16:45Z</time>
      </trkpt>
      <trkpt lat="43.42414" lon="6.5349">
        <ele>227</ele>
        <time>2020-05-30T17:17:16Z</time>
      </trkpt>
      <trkpt lat="43.42403" lon="6.53501">
        <ele>228</ele>
        <time>2020-05-30T17:17:34Z</time>
      </trkpt>
      <trkpt lat="43.42376" lon="6.53511">
        <ele>229</ele>
        <time>2020-05-30T17:18:11Z</time>
      </trkpt>
      <trkpt lat="43.42339" lon="6.53517">
        <ele>232</ele>
        <time>2020-05-30T17:19:01Z</time>
      </trkpt>
      <trkpt lat="43.42319" lon="6.53525">
        <ele>234</ele>
        <time>2020-05-30T17:19:29Z</time>
      </trkpt>
      <trkpt lat="43.42277" lon="6.53548">
        <ele>239</ele>
        <time>2020-05-30T17:20:29Z</time>
      </trkpt>
      <trkpt lat="43.42237" lon="6.53556">
        <ele>242</ele>
        <time>2020-05-30T17:21:23Z</time>
      </trkpt>
      <trkpt lat="43.42221" lon="6.53556">
        <ele>242</ele>
        <time>2020-05-30T17:21:44Z</time>
      </trkpt>
      <trkpt lat="43.42208" lon="6.53551">
        <ele>241</ele>
        <time>2020-05-30T17:22:02Z</time>
      </trkpt>
      <trkpt lat="43.42154" lon="6.53506">
        <ele>246</ele>
        <time>2020-05-30T17:23:27Z</time>
      </trkpt>
      <trkpt lat="43.42142" lon="6.53498">
        <ele>248</ele>
        <time>2020-05-30T17:23:44Z</time>
      </trkpt>
      <trkpt lat="43.42114" lon="6.53504">
        <ele>247</ele>
        <time>2020-05-30T17:24:22Z</time>
      </trkpt>
      <trkpt lat="43.42106" lon="6.5351">
        <ele>246</ele>
        <time>2020-05-30T17:24:34Z</time>
      </trkpt>
      <trkpt lat="43.42087" lon="6.53517">
        <ele>245</ele>
        <time>2020-05-30T17:25:01Z</time>
      </trkpt>
      <trkpt lat="43.42076" lon="6.53516">
        <ele>245</ele>
        <time>2020-05-30T17:25:15Z</time>
      </trkpt>
      <trkpt lat="43.42051" lon="6.53511">
        <ele>246</ele>
        <time>2020-05-30T17:25:49Z</time>
      </trkpt>
      <trkpt lat="43.42009" lon="6.53514">
        <ele>244</ele>
        <time>2020-05-30T17:26:45Z</time>
      </trkpt>
      <trkpt lat="43.42003" lon="6.5351">
        <ele>245</ele>
        <time>2020-05-30T17:26:54Z</time>
      </trkpt>
      <trkpt lat="43.4199" lon="6.53496">
        <ele>245</ele>
        <time>2020-05-30T17:27:16Z</time>
      </trkpt>
      <trkpt lat="43.4197" lon="6.53463">
        <ele>244</ele>
        <time>2020-05-30T17:27:58Z</time>
      </trkpt>
      <trkpt lat="43.41943" lon="6.534">
        <ele>245</ele>
        <time>2020-05-30T17:29:09Z</time>
      </trkpt>
      <trkpt lat="43.41936" lon="6.53388">
        <ele>245</ele>
        <time>2020-05-30T17:29:24Z</time>
      </trkpt>
      <trkpt lat="43.41892" lon="6.53356">
        <ele>241</ele>
        <time>2020-05-30T17:30:30Z</time>
      </trkpt>
      <trkpt lat="43.41872" lon="6.53336">
        <ele>240</ele>
        <time>2020-05-30T17:31:03Z</time>
      </trkpt>
      <trkpt lat="43.4186" lon="6.53319">
        <ele>239</ele>
        <time>2020-05-30T17:31:26Z</time>
      </trkpt>
      <trkpt lat="43.41847" lon="6.53306">
        <ele>237</ele>
        <time>2020-05-30T17:31:47Z</time>
      </trkpt>
      <trkpt lat="43.41825" lon="6.53298">
        <ele>236</ele>
        <time>2020-05-30T17:32:18Z</time>
      </trkpt>
      <trkpt lat="43.4181" lon="6.53296">
        <ele>236</ele>
        <time>2020-05-30T17:32:38Z</time>
      </trkpt>
      <trkpt lat="43.41796" lon="6.53297">
        <ele>237</ele>
        <time>2020-05-30T17:32:57Z</time>
      </trkpt>
      <trkpt lat="43.41733" lon="6.53285">
        <ele>239</ele>
        <time>2020-05-30T17:34:21Z</time>
      </trkpt>
      <trkpt lat="43.41683" lon="6.53264">
        <ele>243</ele>
        <time>2020-05-30T17:35:31Z</time>
      </trkpt>
      <trkpt lat="43.41671" lon="6.53264">
        <ele>243</ele>
        <time>2020-05-30T17:35:47Z</time>
      </trkpt>
      <trkpt lat="43.41645" lon="6.53267">
        <ele>244</ele>
        <time>2020-05-30T17:36:22Z</time>
      </trkpt>
      <trkpt lat="43.41628" lon="6.53273">
        <ele>244</ele>
        <time>2020-05-30T17:36:46Z</time>
      </trkpt>
      <trkpt lat="43.41589" lon="6.53302">
        <ele>248</ele>
        <time>2020-05-30T17:37:45Z</time>
      </trkpt>
      <trkpt lat="43.41584" lon="6.5331">
        <ele>250</ele>
        <time>2020-05-30T17:37:55Z</time>
      </trkpt>
      <trkpt lat="43.41581" lon="6.53332">
        <ele>252</ele>
        <time>2020-05-30T17:38:17Z</time>
      </trkpt>
      <trkpt lat="43.41582" lon="6.53377">
        <ele>249</ele>
        <time>2020-05-30T17:39:00Z</time>
      </trkpt>
      <trkpt lat="43.41581" lon="6.53387">
        <ele>249</ele>
        <time>2020-05-30T17:39:10Z</time>
      </trkpt>
      <trkpt lat="43.41578" lon="6.53398">
        <ele>248</ele>
        <time>2020-05-30T17:39:21Z</time>
      </trkpt>
      <trkpt lat="43.41573" lon="6.53407">
        <ele>248</ele>
        <time>2020-05-30T17:39:32Z</time>
      </trkpt>
      <trkpt lat="43.41565" lon="6.53414">
        <ele>248</ele>
        <time>2020-05-30T17:39:45Z</time>
      </trkpt>
      <trkpt lat="43.41532" lon="6.53425">
        <ele>249</ele>
        <time>2020-05-30T17:40:30Z</time>
      </trkpt>
      <trkpt lat="43.41517" lon="6.53432">
        <ele>250</ele>
        <time>2020-05-30T17:40:51Z</time>
      </trkpt>
      <trkpt lat="43.41509" lon="6.53438">
        <ele>250</ele>
        <time>2020-05-30T17:41:04Z</time>
      </trkpt>
      <trkpt lat="43.41468" lon="6.53561">
        <ele>247</ele>
        <time>2020-05-30T17:43:15Z</time>
      </trkpt>
      <trkpt lat="43.41455" lon="6.53591">
        <ele>247</ele>
        <time>2020-05-30T17:43:49Z</time>
      </trkpt>
      <trkpt lat="43.41447" lon="6.53602">
        <ele>248</ele>
        <time>2020-05-30T17:44:04Z</time>
      </trkpt>
      <trkpt lat="43.41438" lon="6.53605">
        <ele>249</ele>
        <time>2020-05-30T17:44:16Z</time>
      </trkpt>
      <trkpt lat="43.41422" lon="6.53604">
        <ele>251</ele>
        <time>2020-05-30T17:44:38Z</time>
      </trkpt>
      <trkpt lat="43.41397" lon="6.53605">
        <ele>249</ele>
        <time>2020-05-30T17:45:11Z</time>
      </trkpt>
      <trkpt lat="43.41388" lon="6.53615">
        <ele>248</ele>
        <time>2020-05-30T17:45:26Z</time>
      </trkpt>
      <trkpt lat="43.41372" lon="6.53627">
        <ele>247</ele>
        <time>2020-05-30T17:45:51Z</time>
      </trkpt>
      <trkpt lat="43.41356" lon="6.53636">
        <ele>247</ele>
        <time>2020-05-30T17:46:14Z</time>
      </trkpt>
      <trkpt lat="43.41341" lon="6.53641">
        <ele>247</ele>
        <time>2020-05-30T17:46:34Z</time>
      </trkpt>
      <trkpt lat="43.41303" lon="6.53646">
        <ele>249</ele>
        <time>2020-05-30T17:47:25Z</time>
      </trkpt>
      <trkpt lat="43.41277" lon="6.53646">
        <ele>250</ele>
        <time>2020-05-30T17:48:00Z</time>
      </trkpt>
      <trkpt lat="43.41246" lon="6.53652">
        <ele>253</ele>
        <time>2020-05-30T17:48:42Z</time>
      </trkpt>
      <trkpt lat="43.41161" lon="6.53676">
        <ele>263</ele>
        <time>2020-05-30T17:50:37Z</time>
      </trkpt>
      <trkpt lat="43.41094" lon="6.53684">
        <ele>272</ele>
        <time>2020-05-30T17:52:07Z</time>
      </trkpt>
      <trkpt lat="43.41077" lon="6.53681">
        <ele>273</ele>
        <time>2020-05-30T17:52:30Z</time>
      </trkpt>
      <trkpt lat="43.40992" lon="6.53743">
        <ele>282</ele>
        <time>2020-05-30T17:54:38Z</time>
      </trkpt>
      <trkpt lat="43.40973" lon="6.53755">
        <ele>284</ele>
        <time>2020-05-30T17:55:06Z</time>
      </trkpt>
      <trkpt lat="43.40962" lon="6.5376">
        <ele>284</ele>
        <time>2020-05-30T17:55:22Z</time>
      </trkpt>
      <trkpt lat="43.40954" lon="6.5376">
        <ele>285</ele>
        <time>2020-05-30T17:55:33Z</time>
      </trkpt>
      <trkpt lat="43.40942" lon="6.53756">
        <ele>286</ele>
        <time>2020-05-30T17:55:49Z</time>
      </trkpt>
      <trkpt lat="43.40885" lon="6.53715">
        <ele>286</ele>
        <time>2020-05-30T17:57:15Z</time>
      </trkpt>
      <trkpt lat="43.40838" lon="6.5369">
        <ele>290</ele>
        <time>2020-05-30T17:58:22Z</time>
      </trkpt>
      <trkpt lat="43.40792" lon="6.53669">
        <ele>298</ele>
        <time>2020-05-30T17:59:27Z</time>
      </trkpt>
      <trkpt lat="43.40777" lon="6.53667">
        <ele>301</ele>
        <time>2020-05-30T17:59:47Z</time>
      </trkpt>
      <trkpt lat="43.40757" lon="6.53666">
        <ele>304</ele>
        <time>2020-05-30T18:00:14Z</time>
      </trkpt>
      <trkpt lat="43.40741" lon="6.53667">
        <ele>306</ele>
        <time>2020-05-30T18:00:35Z</time>
      </trkpt>
      <trkpt lat="43.40668" lon="6.53687">
        <ele>309</ele>
        <time>2020-05-30T18:02:14Z</time>
      </trkpt>
      <trkpt lat="43.4064" lon="6.53691">
        <ele>313</ele>
        <time>2020-05-30T18:02:52Z</time>
      </trkpt>
      <trkpt lat="43.40617" lon="6.53692">
        <ele>317</ele>
        <time>2020-05-30T18:03:23Z</time>
      </trkpt>
      <trkpt lat="43.40597" lon="6.5369">
        <ele>320</ele>
        <time>2020-05-30T18:03:49Z</time>
      </trkpt>
      <trkpt lat="43.40579" lon="6.53691">
        <ele>323</ele>
        <time>2020-05-30T18:04:13Z</time>
      </trkpt>
      <trkpt lat="43.40546" lon="6.53689">
        <ele>329</ele>
        <time>2020-05-30T18:04:57Z</time>
      </trkpt>
      <trkpt lat="43.40522" lon="6.53694">
        <ele>333</ele>
        <time>2020-05-30T18:05:30Z</time>
      </trkpt>
      <trkpt lat="43.40515" lon="6.537">
        <ele>334</ele>
        <time>2020-05-30T18:05:41Z</time>
      </trkpt>
      <trkpt lat="43.40505" lon="6.53702">
        <ele>336</ele>
        <time>2020-05-30T18:05:54Z</time>
      </trkpt>
      <trkpt lat="43.40484" lon="6.53719">
        <ele>336</ele>
        <time>2020-05-30T18:06:27Z</time>
      </trkpt>
      <trkpt lat="43.40465" lon="6.53766">
        <ele>333</ele>
        <time>2020-05-30T18:07:19Z</time>
      </trkpt>
      <trkpt lat="43.40457" lon="6.53775">
        <ele>331</ele>
        <time>2020-05-30T18:07:33Z</time>
      </trkpt>
      <trkpt lat="43.40446" lon="6.53797">
        <ele>327</ele>
        <time>2020-05-30T18:07:59Z</time>
      </trkpt>
      <trkpt lat="43.40433" lon="6.53813">
        <ele>325</ele>
        <time>2020-05-30T18:08:22Z</time>
      </trkpt>
      <trkpt lat="43.40419" lon="6.53824">
        <ele>324</ele>
        <time>2020-05-30T18:08:43Z</time>
      </trkpt>
      <trkpt lat="43.40407" lon="6.53838">
        <ele>319</ele>
        <time>2020-05-30T18:09:04Z</time>
      </trkpt>
      <trkpt lat="43.40391" lon="6.53846">
        <ele>314</ele>
        <time>2020-05-30T18:09:27Z</time>
      </trkpt>
      <trkpt lat="43.40369" lon="6.53862">
        <ele>306</ele>
        <time>2020-05-30T18:10:00Z</time>
      </trkpt>
      <trkpt lat="43.4036" lon="6.53862">
        <ele>303</ele>
        <time>2020-05-30T18:10:12Z</time>
      </trkpt>
      <trkpt lat="43.40343" lon="6.53858">
        <ele>299</ele>
        <time>2020-05-30T18:10:35Z</time>
      </trkpt>
      <trkpt lat="43.4032" lon="6.53866">
        <ele>291</ele>
        <time>2020-05-30T18:11:07Z</time>
      </trkpt>
      <trkpt lat="43.40301" lon="6.53867">
        <ele>285</ele>
        <time>2020-05-30T18:11:32Z</time>
      </trkpt>
      <trkpt lat="43.40287" lon="6.53865">
        <ele>280</ele>
        <time>2020-05-30T18:11:51Z</time>
      </trkpt>
      <trkpt lat="43.40341" lon="6.53697">
        <ele>297</ele>
        <time>2020-05-30T18:14:49Z</time>
      </trkpt>
      <trkpt lat="43.4034" lon="6.53654">
        <ele>297</ele>
        <time>2020-05-30T18:15:31Z</time>
      </trkpt>
      <trkpt lat="43.40324" lon="6.5363">
        <ele>294</ele>
        <time>2020-05-30T18:16:03Z</time>
      </trkpt>
      <trkpt lat="43.40309" lon="6.53599">
        <ele>292</ele>
        <time>2020-05-30T18:16:39Z</time>
      </trkpt>
      <trkpt lat="43.40296" lon="6.53563">
        <ele>291</ele>
        <time>2020-05-30T18:17:18Z</time>
      </trkpt>
      <trkpt lat="43.40294" lon="6.53504">
        <ele>293</ele>
        <time>2020-05-30T18:18:15Z</time>
      </trkpt>
      <trkpt lat="43.40281" lon="6.53463">
        <ele>291</ele>
        <time>2020-05-30T18:18:58Z</time>
      </trkpt>
      <trkpt lat="43.40243" lon="6.53438">
        <ele>295</ele>
        <time>2020-05-30T18:19:54Z</time>
      </trkpt>
      <trkpt lat="43.40135" lon="6.53303">
        <ele>305</ele>
        <time>2020-05-30T18:23:09Z</time>
      </trkpt>
      <trkpt lat="43.40101" lon="6.53263">
        <ele>314</ele>
        <time>2020-05-30T18:24:09Z</time>
      </trkpt>
      <trkpt lat="43.40069" lon="6.53255">
        <ele>320</ele>
        <time>2020-05-30T18:24:52Z</time>
      </trkpt>
      <trkpt lat="43.40033" lon="6.53259">
        <ele>323</ele>
        <time>2020-05-30T18:25:40Z</time>
      </trkpt>
      <trkpt lat="43.39977" lon="6.53305">
        <ele>311</ele>
        <time>2020-05-30T18:27:07Z</time>
      </trkpt>
      <trkpt lat="43.39964" lon="6.53304">
        <ele>310</ele>
        <time>2020-05-30T18:27:25Z</time>
      </trkpt>
      <trkpt lat="43.39938" lon="6.53289">
        <ele>313</ele>
        <time>2020-05-30T18:28:02Z</time>
      </trkpt>
      <trkpt lat="43.39887" lon="6.53237">
        <ele>321</ele>
        <time>2020-05-30T18:29:27Z</time>
      </trkpt>
      <trkpt lat="43.398" lon="6.53199">
        <ele>314</ele>
        <time>2020-05-30T18:31:29Z</time>
      </trkpt>
      <trkpt lat="43.39774" lon="6.53183">
        <ele>314</ele>
        <time>2020-05-30T18:32:07Z</time>
      </trkpt>
      <trkpt lat="43.39749" lon="6.53172">
        <ele>314</ele>
        <time>2020-05-30T18:32:42Z</time>
      </trkpt>
      <trkpt lat="43.39727" lon="6.53169">
        <ele>314</ele>
        <time>2020-05-30T18:33:12Z</time>
      </trkpt>
      <trkpt lat="43.3971" lon="6.5317">
        <ele>313</ele>
        <time>2020-05-30T18:33:34Z</time>
      </trkpt>
      <trkpt lat="43.39676" lon="6.53191">
        <ele>307</ele>
        <time>2020-05-30T18:34:24Z</time>
      </trkpt>
      <trkpt lat="43.39667" lon="6.53192">
        <ele>307</ele>
        <time>2020-05-30T18:34:36Z</time>
      </trkpt>
      <trkpt lat="43.39659" lon="6.53186">
        <ele>306</ele>
        <time>2020-05-30T18:34:48Z</time>
      </trkpt>
      <trkpt lat="43.39646" lon="6.53168">
        <ele>307</ele>
        <time>2020-05-30T18:35:13Z</time>
      </trkpt>
      <trkpt lat="43.39631" lon="6.53153">
        <ele>305</ele>
        <time>2020-05-30T18:35:38Z</time>
      </trkpt>
      <trkpt lat="43.39608" lon="6.53135">
        <ele>303</ele>
        <time>2020-05-30T18:36:13Z</time>
      </trkpt>
      <trkpt lat="43.39582" lon="6.53105">
        <ele>305</ele>
        <time>2020-05-30T18:36:58Z</time>
      </trkpt>
      <trkpt lat="43.39572" lon="6.53097">
        <ele>305</ele>
        <time>2020-05-30T18:37:14Z</time>
      </trkpt>
      <trkpt lat="43.39546" lon="6.53084">
        <ele>305</ele>
        <time>2020-05-30T18:37:50Z</time>
      </trkpt>
      <trkpt lat="43.39518" lon="6.5306">
        <ele>302</ele>
        <time>2020-05-30T18:38:34Z</time>
      </trkpt>
      <trkpt lat="43.39478" lon="6.53028">
        <ele>305</ele>
        <time>2020-05-30T18:39:36Z</time>
      </trkpt>
      <trkpt lat="43.39449" lon="6.53013">
        <ele>308</ele>
        <time>2020-05-30T18:40:18Z</time>
      </trkpt>
      <trkpt lat="43.39434" lon="6.53012">
        <ele>310</ele>
        <time>2020-05-30T18:40:38Z</time>
      </trkpt>
      <trkpt lat="43.39408" lon="6.53023">
        <ele>308</ele>
        <time>2020-05-30T18:41:14Z</time>
      </trkpt>
      <trkpt lat="43.39384" lon="6.53041">
        <ele>304</ele>
        <time>2020-05-30T18:41:50Z</time>
      </trkpt>
      <trkpt lat="43.39366" lon="6.53046">
        <ele>303</ele>
        <time>2020-05-30T18:42:15Z</time>
      </trkpt>
      <trkpt lat="43.39338" lon="6.53046">
        <ele>304</ele>
        <time>2020-05-30T18:42:52Z</time>
      </trkpt>
      <trkpt lat="43.39281" lon="6.5304">
        <ele>304</ele>
        <time>2020-05-30T18:44:09Z</time>
      </trkpt>
      <trkpt lat="43.39286" lon="6.53027">
        <ele>304</ele>
        <time>2020-05-30T18:44:23Z</time>
      </trkpt>
      <trkpt lat="43.39309" lon="6.52993">
        <ele>305</ele>
        <time>2020-05-30T18:45:08Z</time>
      </trkpt>
      <trkpt lat="43.39322" lon="6.52971">
        <ele>304</ele>
        <time>2020-05-30T18:45:35Z</time>
      </trkpt>
      <trkpt lat="43.39335" lon="6.52955">
        <ele>305</ele>
        <time>2020-05-30T18:45:59Z</time>
      </trkpt>
      <trkpt lat="43.39351" lon="6.52942">
        <ele>307</ele>
        <time>2020-05-30T18:46:23Z</time>
      </trkpt>
      <trkpt lat="43.39354" lon="6.52936">
        <ele>308</ele>
        <time>2020-05-30T18:46:30Z</time>
      </trkpt>
      <trkpt lat="43.39355" lon="6.52925">
        <ele>308</ele>
        <time>2020-05-30T18:46:41Z</time>
      </trkpt>
      <trkpt lat="43.39351" lon="6.52911">
        <ele>307</ele>
        <time>2020-05-30T18:46:56Z</time>
      </trkpt>
      <trkpt lat="43.39336" lon="6.52886">
        <ele>303</ele>
        <time>2020-05-30T18:47:27Z</time>
      </trkpt>
      <trkpt lat="43.3933" lon="6.52866">
        <ele>302</ele>
        <time>2020-05-30T18:47:48Z</time>
      </trkpt>
      <trkpt lat="43.39332" lon="6.52823">
        <ele>303</ele>
        <time>2020-05-30T18:48:30Z</time>
      </trkpt>
      <trkpt lat="43.39325" lon="6.52782">
        <ele>304</ele>
        <time>2020-05-30T18:49:11Z</time>
      </trkpt>
      <trkpt lat="43.39323" lon="6.52737">
        <ele>307</ele>
        <time>2020-05-30T18:49:55Z</time>
      </trkpt>
      <trkpt lat="43.39302" lon="6.52671">
        <ele>304</ele>
        <time>2020-05-30T18:51:04Z</time>
      </trkpt>
      <trkpt lat="43.39293" lon="6.52657">
        <ele>301</ele>
        <time>2020-05-30T18:51:23Z</time>
      </trkpt>
      <trkpt lat="43.39286" lon="6.52629">
        <ele>299</ele>
        <time>2020-05-30T18:51:51Z</time>
      </trkpt>
      <trkpt lat="43.39294" lon="6.5259">
        <ele>301</ele>
        <time>2020-05-30T18:52:31Z</time>
      </trkpt>
      <trkpt lat="43.39305" lon="6.52584">
        <ele>303</ele>
        <time>2020-05-30T18:52:46Z</time>
      </trkpt>
      <trkpt lat="43.39338" lon="6.52579">
        <ele>307</ele>
        <time>2020-05-30T18:53:31Z</time>
      </trkpt>
      <trkpt lat="43.39356" lon="6.52566">
        <ele>306</ele>
        <time>2020-05-30T18:53:58Z</time>
      </trkpt>
      <trkpt lat="43.39436" lon="6.52463">
        <ele>289</ele>
        <time>2020-05-30T18:56:24Z</time>
      </trkpt>
      <trkpt lat="43.39452" lon="6.52385">
        <ele>276</ele>
        <time>2020-05-30T18:57:43Z</time>
      </trkpt>
      <trkpt lat="43.39451" lon="6.52354">
        <ele>272</ele>
        <time>2020-05-30T18:58:13Z</time>
      </trkpt>
      <trkpt lat="43.39442" lon="6.52318">
        <ele>271</ele>
        <time>2020-05-30T18:58:50Z</time>
      </trkpt>
      <trkpt lat="43.39429" lon="6.52285">
        <ele>272</ele>
        <time>2020-05-30T18:59:26Z</time>
      </trkpt>
      <trkpt lat="43.3942" lon="6.5225">
        <ele>274</ele>
        <time>2020-05-30T19:00:02Z</time>
      </trkpt>
      <trkpt lat="43.39431" lon="6.5223">
        <ele>273</ele>
        <time>2020-05-30T19:00:26Z</time>
      </trkpt>
      <trkpt lat="43.39438" lon="6.52167">
        <ele>274</ele>
        <time>2020-05-30T19:01:28Z</time>
      </trkpt>
      <trkpt lat="43.39443" lon="6.52147">
        <ele>276</ele>
        <time>2020-05-30T19:01:49Z</time>
      </trkpt>
      <trkpt lat="43.39463" lon="6.52133">
        <ele>274</ele>
        <time>2020-05-30T19:02:19Z</time>
      </trkpt>
      <trkpt lat="43.39492" lon="6.52123">
        <ele>271</ele>
        <time>2020-05-30T19:02:58Z</time>
      </trkpt>
      <trkpt lat="43.39529" lon="6.52129">
        <ele>265</ele>
        <time>2020-05-30T19:03:48Z</time>
      </trkpt>
      <trkpt lat="43.39562" lon="6.52147">
        <ele>256</ele>
        <time>2020-05-30T19:04:36Z</time>
      </trkpt>
      <trkpt lat="43.39593" lon="6.52184">
        <ele>242</ele>
        <time>2020-05-30T19:05:30Z</time>
      </trkpt>
      <trkpt lat="43.39695" lon="6.52276">
        <ele>218</ele>
        <time>2020-05-30T19:08:13Z</time>
      </trkpt>
      <trkpt lat="43.3974" lon="6.52324">
        <ele>203</ele>
        <time>2020-05-30T19:09:29Z</time>
      </trkpt>
      <trkpt lat="43.39866" lon="6.52425">
        <ele>173</ele>
        <time>2020-05-30T19:12:44Z</time>
      </trkpt>
      <trkpt lat="43.39875" lon="6.52454">
        <ele>170</ele>
        <time>2020-05-30T19:13:14Z</time>
      </trkpt>
      <trkpt lat="43.3989" lon="6.52477">
        <ele>166</ele>
        <time>2020-05-30T19:13:44Z</time>
      </trkpt>
      <trkpt lat="43.39913" lon="6.52494">
        <ele>163</ele>
        <time>2020-05-30T19:14:19Z</time>
      </trkpt>
      <trkpt lat="43.39946" lon="6.52501">
        <ele>161</ele>
        <time>2020-05-30T19:15:04Z</time>
      </trkpt>
      <trkpt lat="43.39974" lon="6.52514">
        <ele>162</ele>
        <time>2020-05-30T19:15:43Z</time>
      </trkpt>
      <trkpt lat="43.40016" lon="6.52526">
        <ele>160</ele>
        <time>2020-05-30T19:16:40Z</time>
      </trkpt>
      <trkpt lat="43.40043" lon="6.52517">
        <ele>157</ele>
        <time>2020-05-30T19:17:17Z</time>
      </trkpt>
      <trkpt lat="43.40065" lon="6.52535">
        <ele>156</ele>
        <time>2020-05-30T19:17:51Z</time>
      </trkpt>
      <trkpt lat="43.40109" lon="6.52552">
        <ele>153</ele>
        <time>2020-05-30T19:18:52Z</time>
      </trkpt>
      <trkpt lat="43.40126" lon="6.52553">
        <ele>152</ele>
        <time>2020-05-30T19:19:15Z</time>
      </trkpt>
      <trkpt lat="43.40139" lon="6.52539">
        <ele>150</ele>
        <time>2020-05-30T19:19:37Z</time>
      </trkpt>
      <trkpt lat="43.40168" lon="6.5253">
        <ele>147</ele>
        <time>2020-05-30T19:20:17Z</time>
      </trkpt>
      <trkpt lat="43.40183" lon="6.52509">
        <ele>143</ele>
        <time>2020-05-30T19:20:45Z</time>
      </trkpt>
      <trkpt lat="43.40202" lon="6.52506">
        <ele>141</ele>
        <time>2020-05-30T19:21:11Z</time>
      </trkpt>
      <trkpt lat="43.40268" lon="6.52502">
        <ele>133</ele>
        <time>2020-05-30T19:22:39Z</time>
      </trkpt>
      <trkpt lat="43.40276" lon="6.52509">
        <ele>133</ele>
        <time>2020-05-30T19:22:52Z</time>
      </trkpt>
      <trkpt lat="43.40297" lon="6.52512">
        <ele>133</ele>
        <time>2020-05-30T19:23:20Z</time>
      </trkpt>
      <trkpt lat="43.4031" lon="6.52509">
        <ele>132</ele>
        <time>2020-05-30T19:23:37Z</time>
      </trkpt>
      <trkpt lat="43.40328" lon="6.52494">
        <ele>131</ele>
        <time>2020-05-30T19:24:06Z</time>
      </trkpt>
      <trkpt lat="43.40351" lon="6.52484">
        <ele>132</ele>
        <time>2020-05-30T19:24:38Z</time>
      </trkpt>
      <trkpt lat="43.40372" lon="6.52485">
        <ele>131</ele>
        <time>2020-05-30T19:25:06Z</time>
      </trkpt>
      <trkpt lat="43.40387" lon="6.52498">
        <ele>128</ele>
        <time>2020-05-30T19:25:29Z</time>
      </trkpt>
      <trkpt lat="43.40398" lon="6.52541">
        <ele>128</ele>
        <time>2020-05-30T19:26:14Z</time>
      </trkpt>
      <trkpt lat="43.40414" lon="6.52558">
        <ele>125</ele>
        <time>2020-05-30T19:26:41Z</time>
      </trkpt>
      <trkpt lat="43.40439" lon="6.52579">
        <ele>123</ele>
        <time>2020-05-30T19:27:20Z</time>
      </trkpt>
      <trkpt lat="43.40513" lon="6.52598">
        <ele>123</ele>
        <time>2020-05-30T19:29:00Z</time>
      </trkpt>
      <trkpt lat="43.40543" lon="6.52614">
        <ele>122</ele>
        <time>2020-05-30T19:29:43Z</time>
      </trkpt>
      <trkpt lat="43.40588" lon="6.52629">
        <ele>119</ele>
        <time>2020-05-30T19:30:45Z</time>
      </trkpt>
      <trkpt lat="43.40652" lon="6.52666">
        <ele>112</ele>
        <time>2020-05-30T19:32:17Z</time>
      </trkpt>
      <trkpt lat="43.40692" lon="6.52664">
        <ele>110</ele>
        <time>2020-05-30T19:33:11Z</time>
      </trkpt>
      <trkpt lat="43.40735" lon="6.52679">
        <ele>109</ele>
        <time>2020-05-30T19:34:10Z</time>
      </trkpt>
      <trkpt lat="43.40802" lon="6.52687">
        <ele>109</ele>
        <time>2020-05-30T19:35:40Z</time>
      </trkpt>
      <trkpt lat="43.40851" lon="6.52717">
        <ele>108</ele>
        <time>2020-05-30T19:36:51Z</time>
      </trkpt>
      <trkpt lat="43.40878" lon="6.52713">
        <ele>106</ele>
        <time>2020-05-30T19:37:28Z</time>
      </trkpt>
      <trkpt lat="43.40937" lon="6.52689">
        <ele>104</ele>
        <time>2020-05-30T19:38:50Z</time>
      </trkpt>
      <trkpt lat="43.40969" lon="6.52685">
        <ele>104</ele>
        <time>2020-05-30T19:39:33Z</time>
      </trkpt>
      <trkpt lat="43.40994" lon="6.52699">
        <ele>104</ele>
        <time>2020-05-30T19:40:09Z</time>
      </trkpt>
      <trkpt lat="43.41037" lon="6.52685">
        <ele>101</ele>
        <time>2020-05-30T19:41:08Z</time>
      </trkpt>
      <trkpt lat="43.41046" lon="6.52684">
        <ele>101</ele>
        <time>2020-05-30T19:41:20Z</time>
      </trkpt>
      <trkpt lat="43.41059" lon="6.52687">
        <ele>101</ele>
        <time>2020-05-30T19:41:37Z</time>
      </trkpt>
      <trkpt lat="43.41072" lon="6.52683">
        <ele>100</ele>
        <time>2020-05-30T19:41:55Z</time>
      </trkpt>
      <trkpt lat="43.41151" lon="6.52641">
        <ele>96</ele>
        <time>2020-05-30T19:43:48Z</time>
      </trkpt>
      <trkpt lat="43.41164" lon="6.52638">
        <ele>96</ele>
        <time>2020-05-30T19:44:06Z</time>
      </trkpt>
      <trkpt lat="43.41222" lon="6.5263">
        <ele>92</ele>
        <time>2020-05-30T19:45:23Z</time>
      </trkpt>
      <trkpt lat="43.41291" lon="6.52634">
        <ele>92</ele>
        <time>2020-05-30T19:46:56Z</time>
      </trkpt>
      <trkpt lat="43.41301" lon="6.52626">
        <ele>92</ele>
        <time>2020-05-30T19:47:11Z</time>
      </trkpt>
      <trkpt lat="43.4131" lon="6.52622">
        <ele>92</ele>
        <time>2020-05-30T19:47:24Z</time>
      </trkpt>
      <trkpt lat="43.4132" lon="6.52621">
        <ele>93</ele>
        <time>2020-05-30T19:47:37Z</time>
      </trkpt>
      <trkpt lat="43.41358" lon="6.52631">
        <ele>93</ele>
        <time>2020-05-30T19:48:29Z</time>
      </trkpt>
      <trkpt lat="43.41438" lon="6.52665">
        <ele>90</ele>
        <time>2020-05-30T19:50:20Z</time>
      </trkpt>
      <trkpt lat="43.4145" lon="6.52662">
        <ele>91</ele>
        <time>2020-05-30T19:50:37Z</time>
      </trkpt>
      <trkpt lat="43.41463" lon="6.52655">
        <ele>92</ele>
        <time>2020-05-30T19:50:55Z</time>
      </trkpt>
      <trkpt lat="43.41473" lon="6.52643">
        <ele>92</ele>
        <time>2020-05-30T19:51:13Z</time>
      </trkpt>
      <trkpt lat="43.41486" lon="6.52633">
        <ele>92</ele>
        <time>2020-05-30T19:51:33Z</time>
      </trkpt>
      <trkpt lat="43.41513" lon="6.52624">
        <ele>92</ele>
        <time>2020-05-30T19:52:10Z</time>
      </trkpt>
      <trkpt lat="43.41527" lon="6.52621">
        <ele>91</ele>
        <time>2020-05-30T19:52:29Z</time>
      </trkpt>
      <trkpt lat="43.41541" lon="6.52624">
        <ele>91</ele>
        <time>2020-05-30T19:52:48Z</time>
      </trkpt>
      <trkpt lat="43.41551" lon="6.52628">
        <ele>92</ele>
        <time>2020-05-30T19:53:02Z</time>
      </trkpt>
      <trkpt lat="43.41569" lon="6.52643">
        <ele>93</ele>
        <time>2020-05-30T19:53:30Z</time>
      </trkpt>
      <trkpt lat="43.41581" lon="6.52649">
        <ele>94</ele>
        <time>2020-05-30T19:53:47Z</time>
      </trkpt>
      <trkpt lat="43.41591" lon="6.52653">
        <ele>95</ele>
        <time>2020-05-30T19:54:01Z</time>
      </trkpt>
      <trkpt lat="43.41621" lon="6.52657">
        <ele>97</ele>
        <time>2020-05-30T19:54:41Z</time>
      </trkpt>
      <trkpt lat="43.41627" lon="6.52654">
        <ele>97</ele>
        <time>2020-05-30T19:54:49Z</time>
      </trkpt>
      <trkpt lat="43.41631" lon="6.52649">
        <ele>96</ele>
        <time>2020-05-30T19:54:57Z</time>
      </trkpt>
      <trkpt lat="43.41638" lon="6.52633">
        <ele>93</ele>
        <time>2020-05-30T19:55:15Z</time>
      </trkpt>
      <trkpt lat="43.41642" lon="6.52626">
        <ele>92</ele>
        <time>2020-05-30T19:55:23Z</time>
      </trkpt>
      <trkpt lat="43.41663" lon="6.52606">
        <ele>87</ele>
        <time>2020-05-30T19:55:57Z</time>
      </trkpt>
      <trkpt lat="43.41678" lon="6.52584">
        <ele>83</ele>
        <time>2020-05-30T19:56:27Z</time>
      </trkpt>
      <trkpt lat="43.4169" lon="6.52575">
        <ele>83</ele>
        <time>2020-05-30T19:56:45Z</time>
      </trkpt>
      <trkpt lat="43.41704" lon="6.52568">
        <ele>83</ele>
        <time>2020-05-30T19:57:05Z</time>
      </trkpt>
      <trkpt lat="43.41715" lon="6.52567">
        <ele>83</ele>
        <time>2020-05-30T19:57:19Z</time>
      </trkpt>
      <trkpt lat="43.41729" lon="6.52572">
        <ele>84</ele>
        <time>2020-05-30T19:57:39Z</time>
      </trkpt>
      <trkpt lat="43.41749" lon="6.52586">
        <ele>86</ele>
        <time>2020-05-30T19:58:09Z</time>
      </trkpt>
      <trkpt lat="43.4177" lon="6.52596">
        <ele>86</ele>
        <time>2020-05-30T19:58:38Z</time>
      </trkpt>
      <trkpt lat="43.41786" lon="6.526">
        <ele>85</ele>
        <time>2020-05-30T19:59:00Z</time>
      </trkpt>
      <trkpt lat="43.41799" lon="6.52599">
        <ele>83</ele>
        <time>2020-05-30T19:59:17Z</time>
      </trkpt>
      <trkpt lat="43.41806" lon="6.52601">
        <ele>82</ele>
        <time>2020-05-30T19:59:27Z</time>
      </trkpt>
      <trkpt lat="43.41823" lon="6.52613">
        <ele>83</ele>
        <time>2020-05-30T19:59:52Z</time>
      </trkpt>
      <trkpt lat="43.41832" lon="6.52616">
        <ele>82</ele>
        <time>2020-05-30T20:00:05Z</time>
      </trkpt>
      <trkpt lat="43.41859" lon="6.5261">
        <ele>79</ele>
        <time>2020-05-30T20:00:41Z</time>
      </trkpt>
      <trkpt lat="43.41882" lon="6.52612">
        <ele>77</ele>
        <time>2020-05-30T20:01:12Z</time>
      </trkpt>
      <trkpt lat="43.41899" lon="6.52623">
        <ele>78</ele>
        <time>2020-05-30T20:01:37Z</time>
      </trkpt>
      <trkpt lat="43.41905" lon="6.52623">
        <ele>78</ele>
        <time>2020-05-30T20:01:45Z</time>
      </trkpt>
      <trkpt lat="43.41926" lon="6.52598">
        <ele>73</ele>
        <time>2020-05-30T20:02:22Z</time>
      </trkpt>
      <trkpt lat="43.41943" lon="6.52585">
        <ele>71</ele>
        <time>2020-05-30T20:02:48Z</time>
      </trkpt>
      <trkpt lat="43.41989" lon="6.5254">
        <ele>68</ele>
        <time>2020-05-30T20:04:03Z</time>
      </trkpt>
      <trkpt lat="43.42004" lon="6.52529">
        <ele>65</ele>
        <time>2020-05-30T20:04:26Z</time>
      </trkpt>
      <trkpt lat="43.42042" lon="6.52515">
        <ele>64</ele>
        <time>2020-05-30T20:05:19Z</time>
      </trkpt>
      <trkpt lat="43.4206" lon="6.52509">
        <ele>63</ele>
        <time>2020-05-30T20:05:43Z</time>
      </trkpt>
      <trkpt lat="43.42072" lon="6.52509">
        <ele>64</ele>
        <time>2020-05-30T20:05:59Z</time>
      </trkpt>
      <trkpt lat="43.42146" lon="6.52484">
        <ele>59</ele>
        <time>2020-05-30T20:07:41Z</time>
      </trkpt>
      <trkpt lat="43.42195" lon="6.52458">
        <ele>57</ele>
        <time>2020-05-30T20:08:51Z</time>
      </trkpt>
      <trkpt lat="43.42207" lon="6.52456">
        <ele>56</ele>
        <time>2020-05-30T20:09:07Z</time>
      </trkpt>
      <trkpt lat="43.42216" lon="6.52457">
        <ele>56</ele>
        <time>2020-05-30T20:09:19Z</time>
      </trkpt>
      <trkpt lat="43.42274" lon="6.52489">
        <ele>53</ele>
        <time>2020-05-30T20:10:43Z</time>
      </trkpt>
      <trkpt lat="43.42308" lon="6.52527">
        <ele>53</ele>
        <time>2020-05-30T20:11:41Z</time>
      </trkpt>
      <trkpt lat="43.42345" lon="6.52554">
        <ele>52</ele>
        <time>2020-05-30T20:12:37Z</time>
      </trkpt>
      <trkpt lat="43.42354" lon="6.52556">
        <ele>52</ele>
        <time>2020-05-30T20:12:49Z</time>
      </trkpt>
      <trkpt lat="43.42381" lon="6.52568">
        <ele>50</ele>
        <time>2020-05-30T20:13:27Z</time>
      </trkpt>
      <trkpt lat="43.42414" lon="6.52573">
        <ele>48</ele>
        <time>2020-05-30T20:14:11Z</time>
      </trkpt>
      <trkpt lat="43.42424" lon="6.52567">
        <ele>48</ele>
        <time>2020-05-30T20:14:26Z</time>
      </trkpt>
      <trkpt lat="43.42433" lon="6.52573">
        <ele>47</ele>
        <time>2020-05-30T20:14:39Z</time>
      </trkpt>
      <trkpt lat="43.42441" lon="6.52574">
        <ele>47</ele>
        <time>2020-05-30T20:14:50Z</time>
      </trkpt>
      <trkpt lat="43.42451" lon="6.52571">
        <ele>47</ele>
        <time>2020-05-30T20:15:04Z</time>
      </trkpt>
      <trkpt lat="43.4251" lon="6.52537">
        <ele>48</ele>
        <time>2020-05-30T20:16:29Z</time>
      </trkpt>
      <trkpt lat="43.42522" lon="6.52532">
        <ele>49</ele>
        <time>2020-05-30T20:16:46Z</time>
      </trkpt>
      <trkpt lat="43.4253" lon="6.52531">
        <ele>49</ele>
        <time>2020-05-30T20:16:56Z</time>
      </trkpt>
      <trkpt lat="43.42604" lon="6.52561">
        <ele>46</ele>
        <time>2020-05-30T20:18:39Z</time>
      </trkpt>
      <trkpt lat="43.4263" lon="6.52551">
        <ele>44</ele>
        <time>2020-05-30T20:19:15Z</time>
      </trkpt>
      <trkpt lat="43.42648" lon="6.52537">
        <ele>43</ele>
        <time>2020-05-30T20:19:43Z</time>
      </trkpt>
      <trkpt lat="43.4266" lon="6.52525">
        <ele>42</ele>
        <time>2020-05-30T20:20:03Z</time>
      </trkpt>
      <trkpt lat="43.42668" lon="6.52512">
        <ele>42</ele>
        <time>2020-05-30T20:20:19Z</time>
      </trkpt>
      <trkpt lat="43.42675" lon="6.52494">
        <ele>43</ele>
        <time>2020-05-30T20:20:39Z</time>
      </trkpt>
      <trkpt lat="43.42679" lon="6.52468">
        <ele>45</ele>
        <time>2020-05-30T20:21:05Z</time>
      </trkpt>
      <trkpt lat="43.42683" lon="6.52456">
        <ele>46</ele>
        <time>2020-05-30T20:21:18Z</time>
      </trkpt>
      <trkpt lat="43.42694" lon="6.52443">
        <ele>46</ele>
        <time>2020-05-30T20:21:37Z</time>
      </trkpt>
      <trkpt lat="43.4271" lon="6.52432">
        <ele>44</ele>
        <time>2020-05-30T20:22:01Z</time>
      </trkpt>
      <trkpt lat="43.42719" lon="6.5243">
        <ele>43</ele>
        <time>2020-05-30T20:22:13Z</time>
      </trkpt>
      <trkpt lat="43.42737" lon="6.52435">
        <ele>40</ele>
        <time>2020-05-30T20:22:37Z</time>
      </trkpt>
      <trkpt lat="43.42745" lon="6.52434">
        <ele>39</ele>
        <time>2020-05-30T20:22:48Z</time>
      </trkpt>
      <trkpt lat="43.42755" lon="6.52428">
        <ele>38</ele>
        <time>2020-05-30T20:23:03Z</time>
      </trkpt>
      <trkpt lat="43.42777" lon="6.52425">
        <ele>37</ele>
        <time>2020-05-30T20:23:32Z</time>
      </trkpt>
      <trkpt lat="43.42788" lon="6.52419">
        <ele>36</ele>
        <time>2020-05-30T20:23:48Z</time>
      </trkpt>
      <trkpt lat="43.42795" lon="6.52403">
        <ele>38</ele>
        <time>2020-05-30T20:24:06Z</time>
      </trkpt>
      <trkpt lat="43.42801" lon="6.52385">
        <ele>39</ele>
        <time>2020-05-30T20:24:25Z</time>
      </trkpt>
      <trkpt lat="43.42806" lon="6.52375">
        <ele>40</ele>
        <time>2020-05-30T20:24:37Z</time>
      </trkpt>
      <trkpt lat="43.42819" lon="6.52365">
        <ele>39</ele>
        <time>2020-05-30T20:24:57Z</time>
      </trkpt>
      <trkpt lat="43.42839" lon="6.52357">
        <ele>38</ele>
        <time>2020-05-30T20:25:25Z</time>
      </trkpt>
      <trkpt lat="43.42847" lon="6.52355">
        <ele>38</ele>
        <time>2020-05-30T20:25:36Z</time>
      </trkpt>
      <trkpt lat="43.42885" lon="6.52329">
        <ele>39</ele>
        <time>2020-05-30T20:26:32Z</time>
      </trkpt>
      <trkpt lat="43.42893" lon="6.52318">
        <ele>41</ele>
        <time>2020-05-30T20:26:47Z</time>
      </trkpt>
      <trkpt lat="43.42901" lon="6.52315">
        <ele>41</ele>
        <time>2020-05-30T20:26:58Z</time>
      </trkpt>
      <trkpt lat="43.42916" lon="6.52317">
        <ele>40</ele>
        <time>2020-05-30T20:27:19Z</time>
      </trkpt>
      <trkpt lat="43.42929" lon="6.52316">
        <ele>39</ele>
        <time>2020-05-30T20:27:36Z</time>
      </trkpt>
      <trkpt lat="43.42949" lon="6.52298">
        <ele>40</ele>
        <time>2020-05-30T20:28:08Z</time>
      </trkpt>
      <trkpt lat="43.42961" lon="6.5228">
        <ele>40</ele>
        <time>2020-05-30T20:28:31Z</time>
      </trkpt>
      <trkpt lat="43.42972" lon="6.52259">
        <ele>39</ele>
        <time>2020-05-30T20:28:57Z</time>
      </trkpt>
      <trkpt lat="43.42979" lon="6.52233">
        <ele>37</ele>
        <time>2020-05-30T20:29:23Z</time>
      </trkpt>
      <trkpt lat="43.42963" lon="6.52162">
        <ele>43</ele>
        <time>2020-05-30T20:30:35Z</time>
      </trkpt>
      <trkpt lat="43.42941" lon="6.52079">
        <ele>47</ele>
        <time>2020-05-30T20:32:01Z</time>
      </trkpt>
      <trkpt lat="43.42934" lon="6.52039">
        <ele>44</ele>
        <time>2020-05-30T20:32:41Z</time>
      </trkpt>
      <trkpt lat="43.4292" lon="6.5199">
        <ele>41</ele>
        <time>2020-05-30T20:33:32Z</time>
      </trkpt>
      <trkpt lat="43.42903" lon="6.51937">
        <ele>47</ele>
        <time>2020-05-30T20:34:28Z</time>
      </trkpt>
      <trkpt lat="43.42891" lon="6.51867">
        <ele>50</ele>
        <time>2020-05-30T20:35:38Z</time>
      </trkpt>
      <trkpt lat="43.42887" lon="6.51837">
        <ele>50</ele>
        <time>2020-05-30T20:36:07Z</time>
      </trkpt>
      <trkpt lat="43.42886" lon="6.51801">
        <ele>48</ele>
        <time>2020-05-30T20:36:42Z</time>
      </trkpt>
      <trkpt lat="43.42881" lon="6.51762">
        <ele>47</ele>
        <time>2020-05-30T20:37:21Z</time>
      </trkpt>
      <trkpt lat="43.42876" lon="6.51735">
        <ele>47</ele>
        <time>2020-05-30T20:37:48Z</time>
      </trkpt>
      <trkpt lat="43.42869" lon="6.51713">
        <ele>48</ele>
        <time>2020-05-30T20:38:11Z</time>
      </trkpt>
      <trkpt lat="43.42858" lon="6.51692">
        <ele>50</ele>
        <time>2020-05-30T20:38:36Z</time>
      </trkpt>
      <trkpt lat="43.42854" lon="6.51678">
        <ele>50</ele>
        <time>2020-05-30T20:38:51Z</time>
      </trkpt>
      <trkpt lat="43.42852" lon="6.51662">
        <ele>50</ele>
        <time>2020-05-30T20:39:06Z</time>
      </trkpt>
      <trkpt lat="43.42851" lon="6.51641">
        <ele>52</ele>
        <time>2020-05-30T20:39:27Z</time>
      </trkpt>
      <trkpt lat="43.42855" lon="6.51628">
        <ele>52</ele>
        <time>2020-05-30T20:39:40Z</time>
      </trkpt>
      <trkpt lat="43.4286" lon="6.51619">
        <ele>51</ele>
        <time>2020-05-30T20:39:51Z</time>
      </trkpt>
      <trkpt lat="43.42868" lon="6.51611">
        <ele>50</ele>
        <time>2020-05-30T20:40:05Z</time>
      </trkpt>
      <trkpt lat="43.42881" lon="6.51589">
        <ele>48</ele>
        <time>2020-05-30T20:40:32Z</time>
      </trkpt>
      <trkpt lat="43.4289" lon="6.5157">
        <ele>48</ele>
        <time>2020-05-30T20:40:54Z</time>
      </trkpt>
      <trkpt lat="43.42905" lon="6.51547">
        <ele>47</ele>
        <time>2020-05-30T20:41:24Z</time>
      </trkpt>
      <trkpt lat="43.42912" lon="6.51525">
        <ele>47</ele>
        <time>2020-05-30T20:41:47Z</time>
      </trkpt>
      <trkpt lat="43.42914" lon="6.5151">
        <ele>48</ele>
        <time>2020-05-30T20:42:02Z</time>
      </trkpt>
      <trkpt lat="43.42913" lon="6.51491">
        <ele>50</ele>
        <time>2020-05-30T20:42:21Z</time>
      </trkpt>
      <trkpt lat="43.42907" lon="6.51451">
        <ele>54</ele>
        <time>2020-05-30T20:43:00Z</time>
      </trkpt>
      <trkpt lat="43.429" lon="6.51427">
        <ele>59</ele>
        <time>2020-05-30T20:43:25Z</time>
      </trkpt>
      <trkpt lat="43.42921" lon="6.51374">
        <ele>57</ele>
        <time>2020-05-30T20:44:24Z</time>
      </trkpt>
      <trkpt lat="43.42939" lon="6.51323">
        <ele>58</ele>
        <time>2020-05-30T20:45:19Z</time>
      </trkpt>
      <trkpt lat="43.42956" lon="6.51278">
        <ele>57</ele>
        <time>2020-05-30T20:46:08Z</time>
      </trkpt>
      <trkpt lat="43.42964" lon="6.51236">
        <ele>59</ele>
        <time>2020-05-30T20:46:50Z</time>
      </trkpt>
      <trkpt lat="43.42968" lon="6.51224">
        <ele>58</ele>
        <time>2020-05-30T20:47:03Z</time>
      </trkpt>
      <trkpt lat="43.4298" lon="6.51207">
        <ele>56</ele>
        <time>2020-05-30T20:47:26Z</time>
      </trkpt>
      <trkpt lat="43.42986" lon="6.51193">
        <ele>55</ele>
        <time>2020-05-30T20:47:41Z</time>
      </trkpt>
      <trkpt lat="43.43004" lon="6.51118">
        <ele>57</ele>
        <time>2020-05-30T20:48:58Z</time>
      </trkpt>
      <trkpt lat="43.43009" lon="6.51105">
        <ele>59</ele>
        <time>2020-05-30T20:49:12Z</time>
      </trkpt>
      <trkpt lat="43.43017" lon="6.51099">
        <ele>59</ele>
        <time>2020-05-30T20:49:24Z</time>
      </trkpt>
      <trkpt lat="43.43023" lon="6.51099">
        <ele>59</ele>
        <time>2020-05-30T20:49:32Z</time>
      </trkpt>
      <trkpt lat="43.43045" lon="6.51125">
        <ele>54</ele>
        <time>2020-05-30T20:50:11Z</time>
      </trkpt>
      <trkpt lat="43.43074" lon="6.51131">
        <ele>50</ele>
        <time>2020-05-30T20:50:50Z</time>
      </trkpt>
      <trkpt lat="43.43096" lon="6.51131">
        <ele>47</ele>
        <time>2020-05-30T20:51:20Z</time>
      </trkpt>
      <trkpt lat="43.43113" lon="6.51121">
        <ele>46</ele>
        <time>2020-05-30T20:51:44Z</time>
      </trkpt>
      <trkpt lat="43.43139" lon="6.51101">
        <ele>43</ele>
        <time>2020-05-30T20:52:24Z</time>
      </trkpt>
      <trkpt lat="43.43153" lon="6.51084">
        <ele>43</ele>
        <time>2020-05-30T20:52:49Z</time>
      </trkpt>
      <trkpt lat="43.43161" lon="6.51068">
        <ele>42</ele>
        <time>2020-05-30T20:53:08Z</time>
      </trkpt>
      <trkpt lat="43.43169" lon="6.51044">
        <ele>42</ele>
        <time>2020-05-30T20:53:33Z</time>
      </trkpt>
      <trkpt lat="43.43173" lon="6.51037">
        <ele>42</ele>
        <time>2020-05-30T20:53:42Z</time>
      </trkpt>
      <trkpt lat="43.43203" lon="6.51038">
        <ele>38</ele>
        <time>2020-05-30T20:54:22Z</time>
      </trkpt>
      <trkpt lat="43.43233" lon="6.51045">
        <ele>34</ele>
        <time>2020-05-30T20:55:03Z</time>
      </trkpt>
      <trkpt lat="43.4325" lon="6.51046">
        <ele>32</ele>
        <time>2020-05-30T20:55:25Z</time>
      </trkpt>
      <trkpt lat="43.43266" lon="6.51043">
        <ele>33</ele>
        <time>2020-05-30T20:55:47Z</time>
      </trkpt>
      <trkpt lat="43.43319" lon="6.5102">
        <ele>40</ele>
        <time>2020-05-30T20:57:01Z</time>
      </trkpt>
      <trkpt lat="43.43335" lon="6.51019">
        <ele>42</ele>
        <time>2020-05-30T20:57:22Z</time>
      </trkpt>
      <trkpt lat="43.43347" lon="6.51016">
        <ele>43</ele>
        <time>2020-05-30T20:57:39Z</time>
      </trkpt>
      <trkpt lat="43.43359" lon="6.51022">
        <ele>43</ele>
        <time>2020-05-30T20:57:56Z</time>
      </trkpt>
      <trkpt lat="43.43399" lon="6.5103">
        <ele>45</ele>
        <time>2020-05-30T20:58:50Z</time>
      </trkpt>
      <trkpt lat="43.43424" lon="6.51047">
        <ele>43</ele>
        <time>2020-05-30T20:59:27Z</time>
      </trkpt>
      <trkpt lat="43.43459" lon="6.5106">
        <ele>41</ele>
        <time>2020-05-30T21:00:15Z</time>
      </trkpt>
    </trkseg>
  </trk>
</gpx>